createdAt,value
2017-12-05T00:00:18.762Z,0
2017-12-05T00:01:28.310Z,0
2017-12-05T00:02:38.113Z,0
2017-12-05T00:03:47.937Z,0
2017-12-05T00:04:57.731Z,0
2017-12-05T00:06:07.793Z,0
2017-12-05T00:07:17.853Z,0
2017-12-05T00:08:27.396Z,0
2017-12-05T00:09:37.193Z,0
2017-12-05T00:10:47.246Z,0
2017-12-05T00:11:57.099Z,0
2017-12-05T00:13:07.150Z,0
2017-12-05T00:14:17.221Z,0
2017-12-05T00:15:27.281Z,0
2017-12-05T00:16:37.077Z,0
2017-12-05T00:17:46.981Z,0
2017-12-05T00:18:57.041Z,0
2017-12-05T00:20:07.102Z,0
2017-12-05T00:21:16.628Z,0
2017-12-05T00:22:26.708Z,0
2017-12-05T00:23:36.506Z,0
2017-12-05T00:24:46.298Z,0
2017-12-05T00:25:56.367Z,0
2017-12-05T00:27:06.446Z,0
2017-12-05T00:28:16.247Z,0
2017-12-05T00:29:26.099Z,0
2017-12-05T00:30:35.355Z,0
2017-12-05T00:31:44.888Z,0
2017-12-05T00:32:54.942Z,0
2017-12-05T00:34:05.000Z,0
2017-12-05T00:35:14.539Z,0
2017-12-05T00:36:24.330Z,0
2017-12-05T00:37:34.125Z,0
2017-12-05T00:38:43.923Z,0
2017-12-05T00:39:53.987Z,0
2017-12-05T00:41:03.831Z,0
2017-12-05T00:42:13.888Z,0
2017-12-05T00:43:23.952Z,0
2017-12-05T00:44:34.450Z,0
2017-12-05T00:45:45.296Z,0
2017-12-05T00:46:55.393Z,0
2017-12-05T00:48:04.933Z,0
2017-12-05T00:49:14.733Z,0
2017-12-05T00:50:24.516Z,0
2017-12-05T00:51:34.308Z,0
2017-12-05T00:52:44.413Z,0
2017-12-05T00:53:54.460Z,0
2017-12-05T00:55:04.525Z,0
2017-12-05T00:56:14.586Z,0
2017-12-05T00:57:24.652Z,0
2017-12-05T00:58:34.754Z,0
2017-12-05T00:59:44.824Z,0
2017-12-05T01:00:54.616Z,0
2017-12-05T01:02:04.670Z,0
2017-12-05T01:03:14.724Z,0
2017-12-05T01:04:24.512Z,0
2017-12-05T01:05:34.307Z,0
2017-12-05T01:06:44.347Z,0
2017-12-05T01:07:54.462Z,0
2017-12-05T01:09:04.513Z,0
2017-12-05T01:10:14.625Z,0
2017-12-05T01:11:24.478Z,0
2017-12-05T01:12:34.303Z,0
2017-12-05T01:13:44.380Z,0
2017-12-05T01:14:53.926Z,0
2017-12-05T01:16:04.025Z,0
2017-12-05T01:17:14.086Z,0
2017-12-05T01:18:23.883Z,0
2017-12-05T01:19:36.067Z,0
2017-12-05T01:20:46.132Z,0
2017-12-05T01:21:56.181Z,0
2017-12-05T01:23:06.240Z,0
2017-12-05T01:24:16.570Z,0
2017-12-05T01:25:26.363Z,0
2017-12-05T01:26:36.435Z,0
2017-12-05T01:27:46.532Z,0
2017-12-05T01:28:56.589Z,0
2017-12-05T01:30:06.652Z,0
2017-12-05T01:31:16.744Z,0
2017-12-05T01:32:26.529Z,0
2017-12-05T01:33:36.642Z,0
2017-12-05T01:34:46.702Z,0
2017-12-05T01:35:56.503Z,0
2017-12-05T01:37:06.296Z,0
2017-12-05T01:38:16.092Z,0
2017-12-05T01:39:25.905Z,0
2017-12-05T01:40:37.326Z,0
2017-12-05T01:41:48.231Z,0
2017-12-05T01:42:58.024Z,0
2017-12-05T01:44:09.017Z,0
2017-12-05T01:45:19.114Z,0
2017-12-05T01:46:28.911Z,0
2017-12-05T01:47:38.982Z,0
2017-12-05T01:48:49.033Z,0
2017-12-05T01:49:59.081Z,0
2017-12-05T01:51:09.039Z,0
2017-12-05T01:52:19.121Z,0
2017-12-05T01:53:28.655Z,0
2017-12-05T01:54:38.193Z,0
2017-12-05T01:55:47.979Z,0
2017-12-05T01:56:58.032Z,0
2017-12-05T01:58:08.101Z,0
2017-12-05T01:59:17.944Z,0
2017-12-05T02:00:27.488Z,0
2017-12-05T02:01:37.559Z,0
2017-12-05T02:02:47.391Z,0
2017-12-05T02:03:58.647Z,0
2017-12-05T02:05:08.459Z,0
2017-12-05T02:06:18.551Z,0
2017-12-05T02:07:28.359Z,0
2017-12-05T02:08:38.510Z,0
2017-12-05T02:09:48.307Z,0
2017-12-05T02:10:58.104Z,0
2017-12-05T02:12:08.159Z,0
2017-12-05T02:13:17.944Z,0
2017-12-05T02:14:28.007Z,0
2017-12-05T02:15:38.058Z,0
2017-12-05T02:16:48.112Z,0
2017-12-05T02:17:57.387Z,0
2017-12-05T02:19:07.447Z,0
2017-12-05T02:20:17.511Z,0
2017-12-05T02:21:27.575Z,0
2017-12-05T02:22:37.370Z,0
2017-12-05T02:23:47.180Z,0
2017-12-05T02:24:57.237Z,0
2017-12-05T02:26:07.090Z,0
2017-12-05T02:27:17.158Z,0
2017-12-05T02:28:26.425Z,0
2017-12-05T02:29:36.474Z,0
2017-12-05T02:30:46.012Z,0
2017-12-05T02:31:56.083Z,0
2017-12-05T02:33:06.140Z,0
2017-12-05T02:34:15.941Z,0
2017-12-05T02:35:25.990Z,0
2017-12-05T02:36:36.033Z,0
2017-12-05T02:37:46.103Z,0
2017-12-05T02:38:56.171Z,0
2017-12-05T02:40:05.980Z,0
2017-12-05T02:41:16.048Z,0
2017-12-05T02:42:26.100Z,0
2017-12-05T02:43:35.948Z,0
2017-12-05T02:44:45.759Z,0
2017-12-05T02:45:55.573Z,0
2017-12-05T02:47:05.506Z,0
2017-12-05T02:48:15.803Z,0
2017-12-05T02:49:25.607Z,0
2017-12-05T02:50:35.135Z,0
2017-12-05T02:51:45.570Z,0
2017-12-05T02:52:55.384Z,0
2017-12-05T02:54:05.447Z,0
2017-12-05T02:55:15.289Z,0
2017-12-05T02:56:25.359Z,0
2017-12-05T02:57:35.177Z,0
2017-12-05T02:58:45.535Z,0
2017-12-05T02:59:55.056Z,0
2017-12-05T03:01:05.108Z,0
2017-12-05T03:02:15.173Z,0
2017-12-05T03:34:00.598Z,0
2017-12-05T03:35:09.854Z,0
2017-12-05T03:36:19.631Z,0
2017-12-05T03:37:29.427Z,0
2017-12-05T03:38:39.223Z,0
2017-12-05T03:39:49.318Z,0
2017-12-05T03:40:59.100Z,0
2017-12-05T03:42:08.639Z,0
2017-12-05T03:43:18.792Z,0
2017-12-05T03:44:28.897Z,0
2017-12-05T03:45:38.699Z,0
2017-12-05T03:46:48.759Z,0
2017-12-05T03:47:58.814Z,0
2017-12-05T03:49:08.863Z,0
2017-12-05T03:50:18.929Z,0
2017-12-05T03:51:29.027Z,0
2017-12-05T03:52:39.090Z,0
2017-12-05T03:53:49.147Z,0
2017-12-05T03:54:58.153Z,0
2017-12-05T03:56:07.951Z,0
2017-12-05T03:57:17.544Z,0
2017-12-05T03:58:27.084Z,0
2017-12-05T03:59:36.880Z,0
2017-12-05T04:00:46.673Z,0
2017-12-05T04:01:56.470Z,0
2017-12-05T04:03:06.516Z,0
2017-12-05T04:04:16.314Z,0
2017-12-05T04:05:26.153Z,0
2017-12-05T04:06:36.206Z,0
2017-12-05T04:07:46.005Z,0
2017-12-05T04:08:55.789Z,0
2017-12-05T04:10:05.836Z,0
2017-12-05T04:11:15.645Z,0
2017-12-05T04:12:25.691Z,0
2017-12-05T04:13:35.764Z,0
2017-12-05T04:14:45.664Z,0
2017-12-05T04:15:55.209Z,0
2017-12-05T04:17:05.295Z,0
2017-12-05T04:18:15.098Z,0
2017-12-05T04:19:25.176Z,0
2017-12-05T04:20:35.269Z,0
2017-12-05T04:21:45.364Z,0
2017-12-05T04:22:55.169Z,0
2017-12-05T04:24:04.962Z,0
2017-12-05T04:25:14.756Z,0
2017-12-05T04:26:24.552Z,0
2017-12-05T04:27:34.349Z,0
2017-12-05T04:28:43.884Z,0
2017-12-05T04:29:53.416Z,0
2017-12-05T04:31:03.481Z,0
2017-12-05T04:32:13.535Z,0
2017-12-05T04:33:23.590Z,0
2017-12-05T04:34:33.397Z,0
2017-12-05T04:35:43.454Z,0
2017-12-05T04:36:53.266Z,0
2017-12-05T04:38:03.100Z,0
2017-12-05T04:39:13.170Z,0
2017-12-05T04:40:22.982Z,0
2017-12-05T04:41:32.770Z,0
2017-12-05T04:42:42.825Z,0
2017-12-05T04:43:52.906Z,0
2017-12-05T04:45:02.969Z,0
2017-12-05T04:46:13.020Z,0
2017-12-05T04:47:23.077Z,0
2017-12-05T04:48:32.880Z,0
2017-12-05T04:49:42.721Z,0
2017-12-05T04:50:52.764Z,0
2017-12-05T04:52:02.820Z,0
2017-12-05T04:53:12.666Z,0
2017-12-05T04:54:22.457Z,0
2017-12-05T04:55:32.301Z,0
2017-12-05T04:56:42.090Z,0
2017-12-05T04:57:51.893Z,0
2017-12-05T04:59:01.956Z,0
2017-12-05T05:00:11.736Z,0
2017-12-05T05:01:21.273Z,0
2017-12-05T05:02:30.812Z,0
2017-12-05T05:03:40.908Z,0
2017-12-05T05:04:50.961Z,0
2017-12-05T05:06:01.011Z,0
2017-12-05T05:07:11.057Z,0
2017-12-05T05:08:21.135Z,0
2017-12-05T05:09:30.945Z,0
2017-12-05T05:10:41.006Z,0
2017-12-05T05:11:51.133Z,0
2017-12-05T05:13:01.185Z,0
2017-12-05T05:14:10.989Z,0
2017-12-05T05:15:20.779Z,0
2017-12-05T05:16:30.571Z,0
2017-12-05T05:17:39.845Z,0
2017-12-05T05:18:49.899Z,0
2017-12-05T05:19:59.960Z,0
2017-12-05T05:21:09.759Z,0
2017-12-05T05:22:19.831Z,0
2017-12-05T05:23:29.900Z,0
2017-12-05T05:24:40.049Z,0
2017-12-05T05:25:49.846Z,0
2017-12-05T05:26:59.631Z,0
2017-12-05T05:28:09.682Z,0
2017-12-05T05:29:19.216Z,0
2017-12-05T05:30:29.326Z,0
2017-12-05T05:31:39.383Z,0
2017-12-05T05:32:49.431Z,0
2017-12-05T05:33:59.508Z,0
2017-12-05T05:35:09.569Z,0
2017-12-05T05:36:19.417Z,0
2017-12-05T05:37:29.477Z,0
2017-12-05T05:38:39.275Z,0
2017-12-05T05:39:49.316Z,0
2017-12-05T05:40:59.101Z,0
2017-12-05T05:42:08.961Z,0
2017-12-05T05:43:19.013Z,0
2017-12-05T05:44:29.075Z,0
2017-12-05T05:45:38.871Z,0
2017-12-05T05:46:48.938Z,0
2017-12-05T05:47:58.987Z,0
2017-12-05T05:49:08.535Z,0
2017-12-05T05:50:18.595Z,0
2017-12-05T05:51:28.376Z,0
2017-12-05T05:52:38.167Z,0
2017-12-05T05:53:48.252Z,0
2017-12-05T05:54:58.323Z,0
2017-12-05T05:56:08.383Z,4
2017-12-05T05:57:18.172Z,4
2017-12-05T05:58:27.950Z,0
2017-12-05T05:59:37.478Z,0
2017-12-05T06:00:47.568Z,0
2017-12-05T06:01:57.639Z,4
2017-12-05T06:03:07.687Z,0
2017-12-05T06:04:17.476Z,4
2017-12-05T06:05:27.534Z,0
2017-12-05T06:06:37.595Z,4
2017-12-05T06:07:47.392Z,4
2017-12-05T06:08:57.185Z,4
2017-12-05T06:10:07.234Z,4
2017-12-05T06:11:17.081Z,4
2017-12-05T06:12:27.134Z,4
2017-12-05T06:13:37.180Z,4
2017-12-05T06:14:47.225Z,4
2017-12-05T06:15:57.309Z,4
2017-12-05T06:17:07.422Z,8
2017-12-05T06:18:17.224Z,8
2017-12-05T06:19:27.034Z,4
2017-12-05T06:20:36.816Z,8
2017-12-05T06:21:46.595Z,12
2017-12-05T06:22:56.444Z,12
2017-12-05T06:24:06.494Z,20
2017-12-05T06:25:16.284Z,24
2017-12-05T06:26:26.345Z,28
2017-12-05T06:27:36.449Z,28
2017-12-05T06:28:46.562Z,36
2017-12-05T06:29:56.346Z,36
2017-12-05T06:31:06.146Z,40
2017-12-05T06:32:15.939Z,44
2017-12-05T06:33:25.981Z,40
2017-12-05T06:34:36.043Z,40
2017-12-05T06:35:45.814Z,40
2017-12-05T06:36:55.885Z,48
2017-12-05T06:38:05.941Z,52
2017-12-05T06:39:15.472Z,56
2017-12-05T06:40:25.521Z,64
2017-12-05T06:41:35.302Z,72
2017-12-05T06:42:45.342Z,64
2017-12-05T06:43:55.136Z,64
2017-12-05T06:45:04.937Z,60
2017-12-05T06:46:14.787Z,60
2017-12-05T06:47:24.322Z,72
2017-12-05T06:48:34.170Z,80
2017-12-05T06:49:44.218Z,96
2017-12-05T06:50:54.271Z,108
2017-12-05T06:52:04.064Z,124
2017-12-05T06:53:13.860Z,128
2017-12-05T06:54:23.640Z,132
2017-12-05T06:55:33.699Z,128
2017-12-05T06:56:43.736Z,136
2017-12-05T06:57:53.802Z,144
2017-12-05T06:59:03.849Z,152
2017-12-05T07:00:13.381Z,156
2017-12-05T07:01:23.438Z,164
2017-12-05T07:02:33.489Z,172
2017-12-05T07:03:43.037Z,184
2017-12-05T07:04:52.853Z,188
2017-12-05T07:06:02.667Z,188
2017-12-05T07:07:12.496Z,192
2017-12-05T07:08:22.553Z,192
2017-12-05T07:09:32.338Z,192
2017-12-05T07:10:42.122Z,200
2017-12-05T07:11:51.394Z,212
2017-12-05T07:13:01.169Z,216
2017-12-05T07:14:11.217Z,232
2017-12-05T07:15:21.348Z,240
2017-12-05T07:16:31.126Z,252
2017-12-05T07:17:40.907Z,260
2017-12-05T07:18:50.693Z,252
2017-12-05T07:20:00.489Z,248
2017-12-05T07:21:10.538Z,276
2017-12-05T07:22:20.339Z,296
2017-12-05T07:23:30.134Z,332
2017-12-05T07:24:40.193Z,388
2017-12-05T07:25:50.232Z,424
2017-12-05T07:27:00.341Z,440
2017-12-05T07:28:10.383Z,456
2017-12-05T07:29:20.180Z,472
2017-12-05T07:30:29.723Z,480
2017-12-05T07:31:39.253Z,476
2017-12-05T07:32:49.137Z,480
2017-12-05T07:33:59.488Z,488
2017-12-05T07:35:09.294Z,500
2017-12-05T07:36:19.090Z,516
2017-12-05T07:37:29.155Z,540
2017-12-05T07:38:39.251Z,576
2017-12-05T07:39:48.772Z,600
2017-12-05T07:40:58.826Z,608
2017-12-05T07:42:08.340Z,624
2017-12-05T07:43:18.122Z,652
2017-12-05T07:44:27.702Z,676
2017-12-05T07:45:37.502Z,692
2017-12-05T07:46:46.777Z,664
2017-12-05T07:47:56.573Z,612
2017-12-05T07:49:06.644Z,548
2017-12-05T07:50:16.697Z,532
2017-12-05T07:51:26.493Z,520
2017-12-05T07:52:36.015Z,512
2017-12-05T07:53:45.825Z,492
2017-12-05T07:54:55.363Z,488
2017-12-05T07:56:05.453Z,512
2017-12-05T07:57:15.525Z,556
2017-12-05T07:58:25.304Z,600
2017-12-05T07:59:34.574Z,652
2017-12-05T08:00:44.639Z,700
2017-12-05T08:01:54.730Z,732
2017-12-05T08:03:04.797Z,792
2017-12-05T08:04:14.833Z,872
2017-12-05T08:05:24.893Z,936
2017-12-05T08:06:34.968Z,976
2017-12-05T08:07:44.763Z,992
2017-12-05T08:08:54.550Z,988
2017-12-05T08:10:04.346Z,992
2017-12-05T08:11:14.133Z,1012
2017-12-05T08:12:23.659Z,1016
2017-12-05T08:13:33.461Z,996
2017-12-05T08:14:43.242Z,980
2017-12-05T08:15:52.510Z,980
2017-12-05T08:17:02.292Z,972
2017-12-05T08:18:12.355Z,984
2017-12-05T08:19:22.188Z,992
2017-12-05T08:20:32.003Z,992
2017-12-05T08:21:42.066Z,952
2017-12-05T08:22:52.119Z,928
2017-12-05T08:24:02.177Z,948
2017-12-05T08:25:12.249Z,972
2017-12-05T08:26:22.056Z,996
2017-12-05T08:27:31.853Z,1040
2017-12-05T08:28:41.895Z,1076
2017-12-05T08:29:51.700Z,1132
2017-12-05T08:31:01.484Z,1132
2017-12-05T08:32:11.012Z,1108
2017-12-05T08:33:20.822Z,1064
2017-12-05T08:34:30.623Z,1060
2017-12-05T08:35:40.404Z,1064
2017-12-05T08:36:50.455Z,1108
2017-12-05T08:38:00.233Z,1112
2017-12-05T08:39:10.288Z,1160
2017-12-05T08:40:20.356Z,1164
2017-12-05T08:41:30.164Z,1160
2017-12-05T08:42:39.949Z,1184
2017-12-05T08:43:49.737Z,1192
2017-12-05T08:44:59.824Z,1164
2017-12-05T08:46:09.617Z,1104
2017-12-05T08:47:19.411Z,1008
2017-12-05T08:48:29.310Z,972
2017-12-05T08:49:39.367Z,1008
2017-12-05T08:50:49.173Z,1068
2017-12-05T08:51:58.961Z,1100
2017-12-05T08:53:09.016Z,1092
2017-12-05T08:54:19.080Z,1092
2017-12-05T08:55:29.141Z,1080
2017-12-05T08:56:38.683Z,1080
2017-12-05T08:57:48.227Z,1116
2017-12-05T08:58:58.264Z,1160
2017-12-05T09:00:08.301Z,1164
2017-12-05T09:01:18.091Z,1180
2017-12-05T09:02:28.136Z,1188
2017-12-05T09:03:38.177Z,1204
2017-12-05T09:04:47.972Z,1220
2017-12-05T09:05:58.143Z,1248
2017-12-05T09:07:07.938Z,1252
2017-12-05T09:08:17.719Z,1232
2017-12-05T09:09:27.502Z,1200
2017-12-05T09:10:38.023Z,1172
2017-12-05T09:11:47.814Z,1144
2017-12-05T09:12:57.875Z,1084
2017-12-05T09:14:07.981Z,1060
2017-12-05T09:15:18.049Z,1064
2017-12-05T09:16:27.853Z,1104
2017-12-05T09:17:37.376Z,1124
2017-12-05T09:18:47.445Z,1160
2017-12-05T09:19:56.703Z,1196
2017-12-05T09:21:06.244Z,1224
2017-12-05T09:22:16.261Z,1236
2017-12-05T09:23:26.139Z,1240
2017-12-05T09:24:36.253Z,1248
2017-12-05T09:25:46.321Z,1268
2017-12-05T09:26:56.117Z,1260
2017-12-05T09:28:05.915Z,1220
2017-12-05T09:29:16.020Z,1164
2017-12-05T09:30:26.086Z,1148
2017-12-05T09:31:35.361Z,1112
2017-12-05T09:32:45.410Z,1056
2017-12-05T09:33:55.462Z,988
2017-12-05T09:35:05.524Z,1036
2017-12-05T09:36:15.598Z,1092
2017-12-05T09:37:25.907Z,1088
2017-12-05T09:38:35.962Z,1108
2017-12-05T09:39:45.754Z,1092
2017-12-05T09:40:55.072Z,1080
2017-12-05T09:42:06.024Z,1076
2017-12-05T09:43:15.812Z,1136
2017-12-05T09:44:25.618Z,1096
2017-12-05T09:45:35.446Z,1048
2017-12-05T09:46:45.556Z,1056
2017-12-05T09:47:55.647Z,1084
2017-12-05T09:49:05.728Z,1148
2017-12-05T09:50:15.539Z,1208
2017-12-05T09:51:25.598Z,1276
2017-12-05T09:52:35.439Z,1324
2017-12-05T09:53:45.504Z,1400
2017-12-05T09:54:55.323Z,1484
2017-12-05T09:56:05.120Z,1580
2017-12-05T09:57:14.912Z,1632
2017-12-05T09:58:24.754Z,1644
2017-12-05T09:59:34.815Z,1668
2017-12-05T10:00:44.876Z,1684
2017-12-05T10:01:54.738Z,1732
2017-12-05T10:03:04.527Z,1824
2017-12-05T10:04:14.588Z,1888
2017-12-05T10:05:24.116Z,1920
2017-12-05T10:06:33.921Z,1924
2017-12-05T10:07:43.983Z,1916
2017-12-05T10:08:54.030Z,1904
2017-12-05T10:10:04.097Z,1960
2017-12-05T10:11:15.138Z,1960
2017-12-05T10:12:25.184Z,1952
2017-12-05T10:13:36.328Z,1944
2017-12-05T10:14:46.387Z,1912
2017-12-05T10:15:56.195Z,1852
2017-12-05T10:17:06.004Z,1768
2017-12-05T10:18:15.800Z,1768
2017-12-05T10:19:24.801Z,1844
2017-12-05T10:20:34.858Z,1924
2017-12-05T10:21:44.974Z,1940
2017-12-05T10:22:54.815Z,1864
2017-12-05T10:24:04.352Z,1816
2017-12-05T10:25:14.412Z,1776
2017-12-05T10:26:24.199Z,1788
2017-12-05T10:27:34.313Z,1848
2017-12-05T10:28:44.389Z,1884
2017-12-05T10:29:54.204Z,1880
2017-12-05T10:31:04.272Z,1852
2017-12-05T10:32:14.325Z,1832
2017-12-05T10:33:25.166Z,1796
2017-12-05T10:34:35.225Z,1752
2017-12-05T10:35:45.022Z,1748
2017-12-05T10:36:55.063Z,1792
2017-12-05T10:38:05.182Z,1828
2017-12-05T10:39:15.297Z,1824
2017-12-05T10:40:25.355Z,1808
2017-12-05T10:41:35.154Z,1816
2017-12-05T10:42:45.227Z,1872
2017-12-05T10:43:55.023Z,1952
2017-12-05T10:45:05.288Z,1976
2017-12-05T10:46:15.066Z,1984
2017-12-05T10:47:25.113Z,1928
2017-12-05T10:48:35.173Z,1872
2017-12-05T10:49:45.219Z,1888
2017-12-05T10:50:55.064Z,1964
2017-12-05T10:52:04.859Z,1976
2017-12-05T10:53:14.690Z,1992
2017-12-05T10:54:24.489Z,2032
2017-12-05T10:55:34.286Z,2136
2017-12-05T10:56:43.873Z,2180
2017-12-05T10:57:53.947Z,2060
2017-12-05T10:59:04.084Z,1972
2017-12-05T11:00:14.169Z,1932
2017-12-05T11:01:24.017Z,1864
2017-12-05T11:02:34.080Z,1836
2017-12-05T11:03:44.142Z,1808
2017-12-05T11:04:54.229Z,1840
2017-12-05T11:06:04.288Z,1828
2017-12-05T11:07:14.362Z,1760
2017-12-05T11:08:23.890Z,1728
2017-12-05T11:09:33.954Z,1704
2017-12-05T11:10:44.003Z,1700
2017-12-05T11:11:54.068Z,1684
2017-12-05T11:13:03.868Z,1684
2017-12-05T11:14:14.007Z,1716
2017-12-05T11:15:23.800Z,1800
2017-12-05T11:16:33.587Z,1820
2017-12-05T11:17:43.642Z,1768
2017-12-05T11:18:53.705Z,1644
2017-12-05T11:20:03.826Z,1612
2017-12-05T11:21:13.891Z,1660
2017-12-05T11:22:23.698Z,1736
2017-12-05T11:23:33.497Z,1748
2017-12-05T11:24:43.287Z,1760
2017-12-05T11:25:53.367Z,1776
2017-12-05T11:27:03.437Z,1820
2017-12-05T11:28:13.497Z,1896
2017-12-05T11:29:23.550Z,1992
2017-12-05T11:30:33.332Z,2072
2017-12-05T11:31:43.130Z,2100
2017-12-05T11:32:52.933Z,2084
2017-12-05T11:34:02.722Z,2072
2017-12-05T11:35:12.515Z,2048
2017-12-05T11:36:22.314Z,1984
2017-12-05T11:37:31.927Z,1880
2017-12-05T11:38:41.738Z,1664
2017-12-05T11:39:52.211Z,1468
2017-12-05T11:41:02.008Z,1512
2017-12-05T11:42:11.812Z,1640
2017-12-05T11:43:21.912Z,1712
2017-12-05T11:44:32.623Z,1912
2017-12-05T11:45:42.438Z,1992
2017-12-05T11:46:52.497Z,1996
2017-12-05T11:48:02.542Z,2036
2017-12-05T11:49:12.134Z,2032
2017-12-05T11:50:22.187Z,2048
2017-12-05T11:51:32.242Z,2040
2017-12-05T11:52:42.047Z,2100
2017-12-05T11:53:52.156Z,2056
2017-12-05T11:55:01.700Z,1992
2017-12-05T11:56:11.761Z,1980
2017-12-05T11:57:21.818Z,2008
2017-12-05T11:58:31.611Z,2056
2017-12-05T11:59:41.702Z,2100
2017-12-05T12:00:52.710Z,2180
2017-12-05T12:02:02.520Z,2252
2017-12-05T12:03:11.785Z,2224
2017-12-05T12:04:21.563Z,2144
2017-12-05T12:05:31.640Z,2064
2017-12-05T12:06:41.483Z,2000
2017-12-05T12:07:51.545Z,2016
2017-12-05T12:09:01.636Z,1972
2017-12-05T12:10:11.691Z,1964
2017-12-05T12:11:21.490Z,1996
2017-12-05T12:12:31.549Z,2180
2017-12-05T12:13:41.625Z,2296
2017-12-05T12:14:51.676Z,2416
2017-12-05T12:16:01.740Z,2504
2017-12-05T12:17:11.792Z,2584
2017-12-05T12:18:21.909Z,2664
2017-12-05T12:19:31.970Z,2732
2017-12-05T12:20:41.767Z,2712
2017-12-05T12:21:51.820Z,2744
2017-12-05T12:23:01.629Z,2772
2017-12-05T12:24:11.723Z,2800
2017-12-05T12:25:21.547Z,2696
2017-12-05T12:26:31.343Z,2512
2017-12-05T12:27:41.411Z,2376
2017-12-05T12:28:51.459Z,2296
2017-12-05T12:30:01.051Z,2220
2017-12-05T12:31:10.870Z,2148
2017-12-05T12:32:20.951Z,2148
2017-12-05T12:33:31.018Z,2164
2017-12-05T12:34:40.932Z,2212
2017-12-05T12:35:50.730Z,2268
2017-12-05T12:37:00.544Z,2340
2017-12-05T12:38:10.935Z,2392
2017-12-05T12:39:21.011Z,2444
2017-12-05T12:40:30.818Z,2508
2017-12-05T12:41:40.903Z,2544
2017-12-05T12:42:50.948Z,2576
2017-12-05T12:44:00.761Z,2576
2017-12-05T12:45:10.830Z,2632
2017-12-05T12:46:20.666Z,2648
2017-12-05T12:47:30.200Z,2656
2017-12-05T12:48:40.013Z,2608
2017-12-05T12:49:49.555Z,2484
2017-12-05T12:50:59.620Z,2416
2017-12-05T12:52:09.418Z,2456
2017-12-05T12:53:19.001Z,2516
2017-12-05T12:54:29.079Z,2492
2017-12-05T12:55:38.873Z,2436
2017-12-05T12:56:48.922Z,2448
2017-12-05T12:57:58.973Z,2404
2017-12-05T12:59:08.799Z,2380
2017-12-05T13:00:18.878Z,2304
2017-12-05T13:01:28.938Z,2320
2017-12-05T13:02:38.727Z,2276
2017-12-05T13:03:48.796Z,2344
2017-12-05T13:04:59.953Z,2372
2017-12-05T13:06:10.008Z,2524
2017-12-05T13:07:19.289Z,1984
2017-12-05T13:08:28.842Z,1812
2017-12-05T13:09:38.916Z,1628
2017-12-05T13:10:48.967Z,1496
2017-12-05T13:11:59.034Z,1484
2017-12-05T13:13:09.096Z,1736
2017-12-05T13:14:18.904Z,2036
2017-12-05T13:15:28.970Z,2228
2017-12-05T13:16:39.073Z,2396
2017-12-05T13:17:48.879Z,2508
2017-12-05T13:18:58.177Z,2508
2017-12-05T13:20:08.236Z,2524
2017-12-05T13:21:18.312Z,2448
2017-12-05T13:22:28.151Z,2300
2017-12-05T13:23:37.931Z,2264
2017-12-05T13:24:47.725Z,2820
2017-12-05T13:25:57.792Z,2836
2017-12-05T13:27:07.872Z,2364
2017-12-05T13:28:19.338Z,2600
2017-12-05T13:29:29.416Z,2092
2017-12-05T13:30:39.244Z,2196
2017-12-05T13:31:49.690Z,1856
2017-12-05T13:32:59.223Z,1692
2017-12-05T13:34:09.328Z,1560
2017-12-05T13:35:19.374Z,1436
2017-12-05T13:36:29.169Z,1344
2017-12-05T13:37:39.286Z,1264
2017-12-05T13:38:49.399Z,1244
2017-12-05T13:39:59.554Z,1212
2017-12-05T13:41:09.374Z,1132
2017-12-05T13:42:19.464Z,1088
2017-12-05T13:43:29.555Z,1060
2017-12-05T13:44:39.367Z,980
2017-12-05T13:45:49.459Z,944
2017-12-05T13:46:59.292Z,972
2017-12-05T13:48:09.113Z,964
2017-12-05T13:49:19.219Z,960
2017-12-05T13:50:29.306Z,944
2017-12-05T13:51:39.557Z,896
2017-12-05T13:52:49.399Z,864
2017-12-05T13:53:58.948Z,900
2017-12-05T13:55:08.754Z,840
2017-12-05T13:56:18.583Z,780
2017-12-05T13:57:28.699Z,768
2017-12-05T13:58:38.798Z,740
2017-12-05T13:59:48.871Z,736
2017-12-05T14:00:58.944Z,752
2017-12-05T14:02:09.271Z,784
2017-12-05T14:03:18.876Z,796
2017-12-05T14:04:28.977Z,844
2017-12-05T14:05:38.805Z,852
2017-12-05T14:06:48.395Z,840
2017-12-05T14:07:57.941Z,800
2017-12-05T14:09:08.099Z,748
2017-12-05T14:10:18.213Z,720
2017-12-05T14:11:28.966Z,676
2017-12-05T14:12:38.538Z,648
2017-12-05T14:13:48.625Z,632
2017-12-05T14:14:58.780Z,620
2017-12-05T14:16:08.352Z,588
2017-12-05T14:17:18.447Z,572
2017-12-05T14:18:28.522Z,544
2017-12-05T14:19:38.349Z,520
2017-12-05T14:20:48.489Z,504
2017-12-05T14:21:58.589Z,500
2017-12-05T14:23:08.687Z,504
2017-12-05T14:24:18.503Z,500
2017-12-05T14:25:28.589Z,480
2017-12-05T14:26:38.682Z,456
2017-12-05T14:27:48.765Z,444
2017-12-05T14:28:58.856Z,428
2017-12-05T14:30:08.409Z,424
2017-12-05T14:31:18.237Z,420
2017-12-05T14:32:28.068Z,420
2017-12-05T14:33:38.180Z,412
2017-12-05T14:34:47.998Z,388
2017-12-05T14:35:57.822Z,368
2017-12-05T14:37:07.906Z,344
2017-12-05T14:38:17.468Z,316
2017-12-05T14:39:27.560Z,292
2017-12-05T14:40:37.131Z,272
2017-12-05T14:41:47.239Z,248
2017-12-05T14:42:57.362Z,224
2017-12-05T14:44:07.244Z,212
2017-12-05T14:45:17.066Z,204
2017-12-05T14:46:27.126Z,192
2017-12-05T14:47:37.352Z,176
2017-12-05T14:48:46.914Z,164
2017-12-05T14:49:56.989Z,152
2017-12-05T14:51:06.541Z,144
2017-12-05T14:52:16.810Z,128
2017-12-05T14:53:26.892Z,108
2017-12-05T14:54:36.975Z,96
2017-12-05T14:55:47.046Z,80
2017-12-05T14:56:57.119Z,68
2017-12-05T14:58:06.948Z,60
2017-12-05T14:59:17.013Z,52
2017-12-05T15:00:27.086Z,48
2017-12-05T15:01:36.901Z,40
2017-12-05T15:02:46.974Z,36
2017-12-05T15:03:57.049Z,32
2017-12-05T15:05:07.105Z,28
2017-12-05T15:06:17.181Z,24
2017-12-05T15:07:26.782Z,20
2017-12-05T15:08:36.590Z,20
2017-12-05T15:09:46.367Z,16
2017-12-05T15:10:55.915Z,12
2017-12-05T15:12:05.755Z,12
2017-12-05T15:13:16.200Z,8
2017-12-05T15:14:26.263Z,8
2017-12-05T15:15:36.346Z,8
2017-12-05T15:16:46.421Z,8
2017-12-05T15:17:56.256Z,8
2017-12-05T15:19:06.069Z,4
2017-12-05T15:20:15.876Z,4
2017-12-05T15:21:26.000Z,8
2017-12-05T15:22:35.798Z,4
2017-12-05T15:23:45.862Z,4
2017-12-05T15:24:55.974Z,4
2017-12-05T15:26:05.780Z,0
2017-12-05T15:27:15.849Z,4
2017-12-05T15:28:25.646Z,4
2017-12-05T15:29:35.461Z,0
2017-12-05T15:30:45.574Z,0
2017-12-05T15:31:55.657Z,0
2017-12-05T15:33:05.754Z,4
2017-12-05T15:34:15.823Z,0
2017-12-05T15:35:25.889Z,0
2017-12-05T15:36:35.677Z,0
2017-12-05T15:37:45.539Z,0
2017-12-05T15:38:55.341Z,0
2017-12-05T15:40:05.409Z,0
2017-12-05T15:41:15.224Z,0
2017-12-05T15:42:25.057Z,0
2017-12-05T15:43:35.128Z,0
2017-12-05T15:44:45.223Z,0
2017-12-05T15:45:55.037Z,0
2017-12-05T15:47:05.094Z,0
2017-12-05T15:48:14.898Z,0
2017-12-05T15:49:24.947Z,0
2017-12-05T15:50:35.005Z,0
2017-12-05T15:51:45.062Z,0
2017-12-05T15:52:54.875Z,0
2017-12-05T15:54:04.707Z,0
2017-12-05T15:55:14.800Z,0
2017-12-05T15:56:24.879Z,0
2017-12-05T15:57:34.945Z,0
2017-12-05T15:58:45.062Z,0
2017-12-05T15:59:54.663Z,0
2017-12-05T16:01:04.740Z,0
2017-12-05T16:02:14.554Z,0
2017-12-05T16:03:24.116Z,0
2017-12-05T16:04:34.697Z,0
2017-12-05T16:05:45.604Z,0
2017-12-05T16:06:58.423Z,0
2017-12-05T16:08:11.940Z,0
2017-12-05T16:09:24.213Z,0
2017-12-05T16:10:37.053Z,0
2017-12-05T16:11:50.322Z,0
2017-12-05T16:13:01.408Z,0
2017-12-05T16:14:12.512Z,0
2017-12-05T16:15:23.093Z,0
2017-12-05T16:16:32.894Z,0
2017-12-05T16:17:42.698Z,0
2017-12-05T16:18:52.772Z,0
2017-12-05T16:20:02.600Z,0
2017-12-05T16:21:12.413Z,0
2017-12-05T16:22:22.761Z,0
2017-12-05T16:23:32.828Z,0
2017-12-05T16:24:42.361Z,0
2017-12-05T16:25:52.424Z,0
2017-12-05T16:27:01.966Z,0
2017-12-05T16:28:11.554Z,0
2017-12-05T16:29:21.102Z,0
2017-12-05T16:30:31.186Z,0
2017-12-05T16:31:41.025Z,0
2017-12-05T16:32:51.116Z,0
2017-12-05T16:34:01.234Z,0
2017-12-05T16:35:10.838Z,0
2017-12-05T16:36:20.648Z,0
2017-12-05T16:37:30.467Z,0
2017-12-05T16:38:40.537Z,0
2017-12-05T16:39:50.680Z,0
2017-12-05T16:41:00.486Z,0
2017-12-05T16:42:10.316Z,0
2017-12-05T16:43:20.404Z,0
2017-12-05T16:44:30.501Z,0
2017-12-05T16:45:40.340Z,0
2017-12-05T16:46:50.189Z,0
2017-12-05T16:48:00.032Z,0
2017-12-05T16:49:10.117Z,0
2017-12-05T16:50:20.005Z,0
2017-12-05T16:51:30.163Z,0
2017-12-05T16:52:40.265Z,0
2017-12-05T16:53:50.090Z,0
2017-12-05T16:54:59.649Z,0